Gillette, WY

10:49 AM MDT on July 26, 2014 (GMT -0600)
RAWS ECHETA WY US (MECEW4) Elev 4396 ft | 44.47 °N, 105.84 °W | Change Station

Current weather conditions updated 58 minutes ago

Clear
Clear
71 °F
Feels Like 76 °F
N
5
Wind Variable Wind from NW
Gusts 10.0 mph

Today is forecast to be Much Cooler than yesterday.

Today
High -- | Low -- °F
--% Chance of Precip.
Yesterday
High -- | Low -- °F
Precip. -- in
5:42 AM 8:35 PM
Waning Crescent, 0% visible
Pressure 30.06 in
Visibility 10.0 miles
Clouds Clear
Heat Index 76 °F
Dew Point 36 °F
Humidity 28%
Rainfall 0.00 in
Snow Depth Not available.
UV 6 out of 12
Pollen 6.50 out of 12
Air Quality Not available.
Flu Activity Not available.
METAR KGCC 261553Z AUTO 01008KT 10SM CLR 22/03 A3017 RMK AO2 SLP178 T02170033 $

More Conditions Fewer Conditions

Pressure 30.06 in
Visibility 10.0 miles
Clouds Clear
Heat Index 76 °F
Dew Point 36 °F
Humidity 28%
Rainfall 0.00 in
Snow Depth Not available.
UV 6 out of 12
Pollen 6.50 out of 12
Air Quality Not available.
Flu Activity Not available.
METAR KGCC 261553Z AUTO 01008KT 10SM CLR 22/03 A3017 RMK AO2 SLP178 T02170033 $

More Conditions Fewer Conditions

10-Day Weather Forecast

Almanac

Astronomy

Jul. 26, 2014 Rise Set
Actual Time 5:42 AM MDT 8:35 PM MDT
Civil Twilight 5:08 AM MDT 9:09 PM MDT
Nautical Twilight 4:25 AM MDT 9:52 PM MDT
Astronomical Twilight 3:34 AM MDT 10:42 PM MDT
Moon 5:40 AM MDT 8:07 PM MDT
Length of Visible Light 16h 00m
Length of Day
14h 52m
Tomorrow will be 2m 10s shorter.
Waning Crescent, 0% of the Moon is Illuminated
Today
Waning Crescent
Jul 26
New
Aug 3
First Quarter
Aug 10
Full
Aug 17
Last Quarter

Today's Extremes

State Highs State Lows

Community

WunderPhotos

Upload Photos

1,737,629 photos uploaded!

Nearby

Snow Depth

Station Depth Elevation
Casper Mountain 0 in 7850 ft
Windy Peak 0 in 7900 ft
Townsend Creek 1 in 8700 ft
Sylvan Lake 0 in 8420 ft
Big Sandy Opening 0 in 9080 ft

Earthquake Activity

City Distance Mag. Time & Date
No recent earthquake activity has been reported nearby.
Minimum magnitude displayed is 2.5.

Coastal Water Temperatures

Place Temperature
No Stations Reporting

Nearby Weather Stations

Station Location Temp. Heat Index Dew Point Humidity Wind Precip. Elev Updated Type
RAWS ECHETA WY, Gillette, WY 71 °F 76 °F 36 °F 28% NW  at  5 mph 0.00 in / hr 4396 ft 9:51 AM MDT MADIS

Show More Stations Show Fewer Stations